Flight Track Log - Related Links

Times and Time Zones

All times are in EST time to prevent confusion due to time zone crossing. See the N1250V flight status page for this flight to view local times or setup timezone preferences in your user account.

Time Position Orientation Groundspeed Altitude Reporting Facility
EST Latitude Longitude Course Direction KTS MPH feet Rate Location/Type
Tue 01:27:03 PM 34.6886 -91.4956 49° Northeast 203 234 6,400  Level Memphis Center
Tue 01:27:13 PM 34.6900 -91.4936 49° Northeast 198 228 6,500 2,000 Climbing Memphis Center
Tue 01:28:15 PM 34.7344 -91.4397 45° Northeast 212 244 8,800 2,419 Climbing Memphis Center
Tue 01:29:17 PM 34.7856 -91.3725 47° Northeast 227 261 11,500 2,226 Climbing Memphis Center
Tue 01:30:19 PM 34.8311 -91.3072 50° Northeast 241 277 13,400 1,839 Climbing Memphis Center
Tue 01:31:21 PM 34.8778 -91.2375 51° Northeast 256 295 15,300 1,887 Climbing Memphis Center
Tue 01:32:23 PM 34.9281 -91.1678 49° Northeast 265 305 17,300 1,694 Climbing Memphis Center
Tue 01:33:25 PM 34.9767 -91.0981 50° Northeast 268 308 18,800 1,500 Climbing Memphis Center
Tue 01:34:27 PM 35.0233 -91.0292 50° Northeast 264 304 20,400 1,452 Climbing Memphis Center
Tue 01:35:29 PM 35.0750 -90.9581 48° Northeast 271 312 21,800 1,452 Climbing Memphis Center
Tue 01:36:31 PM 35.1250 -90.8833 51° Northeast 279 321 23,400 1,548 Climbing Memphis Center
Tue 01:37:33 PM 35.1867 -90.7956 49° Northeast 285 328 25,000 1,355 Climbing Memphis Center
Tue 01:38:35 PM 35.2386 -90.7186 50° Northeast 289 333 26,200 1,113 Climbing Memphis Center
Tue 01:39:37 PM 35.2917 -90.6386 51° Northeast 296 341 27,300 1,065 Climbing Memphis Center
Tue 01:40:39 PM 35.3467 -90.5617 49° Northeast 296 341 28,400 1,113 Climbing Memphis Center
Tue 01:41:41 PM 35.4006 -90.4839 50° Northeast 296 341 29,600 1,065 Climbing Memphis Center
Tue 01:42:43 PM 35.4531 -90.4022 52° Northeast 299 344 30,600 968 Climbing Memphis Center
Tue 01:43:45 PM 35.5061 -90.3272 49° Northeast 293 337 31,600 871 Climbing Memphis Center
Tue 01:44:47 PM 35.5578 -90.2489 51° Northeast 292 336 32,400 677 Climbing Memphis Center
Tue 01:45:49 PM 35.6103 -90.1694 51° Northeast 294 338 33,000 290 Climbing Memphis Center
Tue 01:46:51 PM 35.6767 -90.0750 49° Northeast 306 352 33,000  Level Memphis Center
Tue 01:47:53 PM 35.7361 -89.9836 51° Northeast 327 376 33,000  Level Memphis Center
Tue 01:48:55 PM 35.7969 -89.8942 50° Northeast 337 388 33,000  Level Memphis Center
Tue 01:49:57 PM 35.8586 -89.8011 51° Northeast 348 400 33,000  Level Memphis Center
Tue 01:50:59 PM 35.9211 -89.7072 51° Northeast 352 405 33,000  Level Memphis Center
Tue 01:52:01 PM 35.9847 -89.6117 51° Northeast 358 412 33,000  Level Memphis Center
Tue 01:53:03 PM 36.0600 -89.4981 51° Northeast 358 412 33,000  Level Memphis Center
Tue 01:54:05 PM 36.1228 -89.4022 51° Northeast 359 413 33,000  Level Memphis Center
Tue 01:55:07 PM 36.1858 -89.3069 51° Northeast 360 414 33,000  Level Memphis Center
Tue 01:56:10 PM 36.2486 -89.2117 51° Northeast 362 417 33,000  Level Memphis Center
Tue 01:57:12 PM 36.3108 -89.1169 51° Northeast 362 417 33,000  Level Memphis Center
Tue 01:58:14 PM 36.3858 -89.0008 51° Northeast 361 415 33,000  Level Memphis Center
Tue 01:59:16 PM 36.4494 -88.9053 50° Northeast 361 415 33,000  Level Memphis Center
Tue 02:00:19 PM 36.5111 -88.8039 53° Northeast 366 421 33,000  Level Memphis Center
Tue 02:01:21 PM 36.5661 -88.6928 58° Northeast 376 433 33,000  Level Memphis Center
Tue 02:02:23 PM 36.6231 -88.5831 57° Northeast 378 435 33,000  Level Memphis Center
Tue 02:03:25 PM 36.6897 -88.4511 58° Northeast 376 433 33,000  Level Memphis Center
Tue 02:04:27 PM 36.7472 -88.3403 57° Northeast 379 436 33,000  Level Memphis Center
Tue 02:05:29 PM 36.8044 -88.2294 57° Northeast 380 437 33,000  Level Memphis Center
Tue 02:06:31 PM 36.8606 -88.1183 58° Northeast 379 436 33,000  Level Memphis Center
Tue 02:07:33 PM 36.9158 -88.0086 58° Northeast 379 436 33,000  Level Memphis Center
Tue 02:08:35 PM 36.9833 -87.8750 58° Northeast 383 441 33,000 -290 Level Memphis Center
Tue 02:09:37 PM 37.0414 -87.7608 57° Northeast 384 442 32,400 -532 Descending Memphis Center
Tue 02:10:39 PM 37.1019 -87.6397 58° Northeast 397 457 31,900 -482 Descending Memphis Center
Tue 02:11:29 PM 37.1528 -87.5392 58° Northeast 404 465 31,500 -482 Descending Indianapolis Center
Tue 02:12:31 PM 37.2136 -87.4161 58° Northeast 408 470 31,000 -244 Descending Indianapolis Center
Tue 02:13:32 PM 37.2750 -87.2917 58° Northeast 414 476 31,000 -634 Level Indianapolis Center
Tue 02:14:34 PM 37.3372 -87.1667 58° Northeast 417 480 29,700 -1,355 Descending Indianapolis Center
Tue 02:15:36 PM 37.4031 -87.0350 58° Northeast 435 501 28,200 -1,500 Descending Indianapolis Center
Tue 02:16:38 PM 37.4689 -86.8983 59° Northeast 448 516 26,600 -1,548 Descending Indianapolis Center
Tue 02:17:40 PM 37.5447 -86.7497 57° Northeast 453 521 25,000 -1,548 Descending Indianapolis Center
Tue 02:18:42 PM 37.6058 -86.6172 60° Northeast 443 510 23,400 -1,500 Descending Indianapolis Center
Tue 02:19:44 PM 37.6742 -86.4828 57° Northeast 423 487 21,900 -1,268 Descending Indianapolis Center
Tue 02:20:45 PM 37.7353 -86.3497 60° Northeast 430 495 20,800 -1,073 Descending Indianapolis Center
Tue 02:21:47 PM 37.7942 -86.2261 59° Northeast 412 474 19,700 -1,016 Descending Indianapolis Center
Tue 02:22:49 PM 37.8444 -86.1219 59° Northeast 393 452 18,700 -1,016 Descending Indianapolis Center
Tue 02:23:51 PM 37.9097 -85.9844 59° Northeast 382 440 17,600 -1,056 Descending Indianapolis Center
Tue 02:24:54 PM 37.9633 -85.8700 59° Northeast 378 435 16,500 -1,065 Descending Indianapolis Center
Tue 02:25:55 PM 38.0153 -85.7622 59° Northeast 362 417 15,400 -732 Descending Indianapolis Center
Tue 02:26:57 PM 38.0669 -85.6528 59° Northeast 361 415 15,000 -194 Descending Indianapolis Center
Tue 02:27:59 PM 38.1125 -85.5339 64° Northeast 365 420 15,000  Level Indianapolis Center
Tue 02:29:01 PM 38.1422 -85.4039 74° East 381 438 15,000 -244 Level Indianapolis Center
Tue 02:30:02 PM 38.1717 -85.2753 74° East 379 436 14,500 -732 Descending Indianapolis Center
Tue 02:31:04 PM 38.2053 -85.1308 73° East 376 433 13,500 -968 Descending Indianapolis Center
Tue 02:32:06 PM 38.2308 -85.0064 75° East 367 422 12,500 -919 Descending Indianapolis Center
Tue 02:33:08 PM 38.2581 -84.8869 74° East 355 409 11,600 -871 Descending Indianapolis Center
Tue 02:34:10 PM 38.2853 -84.7717 73° East 344 396 10,700 -1,113 Descending Indianapolis Center
Tue 02:35:12 PM 38.3092 -84.6514 76° East 307 353 9,300 -1,306 Descending Indianapolis Center
Tue 02:36:14 PM 38.3750 -84.6028 30° Northeast 290 334 8,000 -968 Descending Indianapolis Center
Tue 02:37:16 PM 38.4506 -84.5819 12° North 278 320 7,300 -484 Descending Indianapolis Center
Tue 02:38:18 PM 38.5200 -84.5472 21° North 271 312 7,000 -677 Descending Indianapolis Center
Tue 02:39:20 PM 38.5958 -84.5072 22° Northeast 284 327 5,900 -919 Descending Indianapolis Center
Tue 02:40:22 PM 38.6681 -84.4717 21° North 277 319 5,100 -439 Descending Indianapolis Center
Tue 02:41:23 PM 38.7389 -84.4353 22° Northeast 276 318 5,000 -49 Descending Indianapolis Center
Tue 02:42:25 PM 38.8075 -84.3989 22° Northeast 271 312 5,000  Level Indianapolis Center
Tue 02:43:27 PM 38.8883 -84.3539 23° Northeast 266 306 5,000 -290 Level Indianapolis Center
Tue 02:44:29 PM 38.9453 -84.3200 25° Northeast 241 277 4,400 -629 Descending Indianapolis Center
Tue 02:45:31 PM 39.0061 -84.2917 20° North 233 268 3,700 -677 Descending Indianapolis Center
Tue 02:46:33 PM 39.0672 -84.2622 21° North 233 268 3,000 -339 Descending Indianapolis Center
Tue 02:47:35 PM 39.1236 -84.2447 14° North 216 249 3,000  Level Indianapolis Center
Tue 02:48:37 PM 39.1758 -84.2333 10° North 200 230 3,000  Level Indianapolis Center
Tue 02:49:39 PM 39.2264 -84.2203 11° North 191 220 3,000  Level Indianapolis Center
Tue 02:50:41 PM 39.2725 -84.2453 337° Northwest 184 212 3,000  Level Indianapolis Center
Tue 02:51:43 PM 39.2917 -84.2989 295° West 172 198 3,000 49 Level Indianapolis Center
Tue 02:52:44 PM 39.2531 -84.3361 217° Southwest 175 201 3,100 49 Climbing Indianapolis Center
Tue 02:53:46 PM 39.2128 -84.3614 206° Southwest 172 198 3,100 -552 Level Indianapolis Center
Tue 02:55:27 PM 39.1667 -84.3833 200° South 123 142 1,600 -891 Descending Cincinnati TRACON

Login

Don't have an account? Register now (free) for customized features, flight alerts, and more!